New London, CT (06320)

1:48 AM EDT on April 28, 2017 (GMT -0400)
Groton Dock Thames River | | Change Station

Elev 0 ft 41.36 °N, 72.08 °W | Updated 6 seconds ago

Fog
Fog
54.0 °F
Feels Like 54.0 °F
N
2.0
Wind Variable Wind from SSW
Gusts 4.0 mph

Today
High -- | Low -- °F
--% Chance of Precip.
Yesterday
High -- | Low -- °F
Precip. -- in
Pressure 29.94 in
Visibility 0.8 miles
Clouds Overcast 200 ft
Dew Point 52 °F
Humidity 93%
Rainfall 0.00 in
Snow Depth Not available.
5:49 AM 7:42 PM
Waxing Crescent, 5% visible
METAR KGON 280456Z AUTO 11006KT 3/4SM R05/3000V4000FT BR OVC002 12/12 A2993 RMK AO2 SLP136 T01220117 401610106
Pressure 29.94 in
Visibility 0.8 miles
Clouds Overcast 200 ft
Dew Point 52 °F
Humidity 93%
Rainfall 0.00 in
Snow Depth Not available.
5:49 AM 7:42 PM
Waxing Crescent, 5% visible
METAR KGON 280456Z AUTO 11006KT 3/4SM R05/3000V4000FT BR OVC002 12/12 A2993 RMK AO2 SLP136 T01220117 401610106

Get Severe Weather Alerts

Thanks for signing up!

Be on the lookout for a verification email in your inbox.

You'll start receiving the daily forecast at 8 AM.

×

10-Day Weather Forecast

Almanac

Astronomy

Apr. 28, 2017 Rise Set
Actual Time
Civil Twilight
Nautical Twilight
Astronomical Twilight
Moon
Length of Visible Light
Length of Day
Tomorrow will be .
, % of the Moon is Illuminated

Today's Extremes

State Highs State Lows

Community

WunderPhotos

WunderBlog® & News

Nearby

Air Quality

  Air Quality AQ Index Pollutant
Not available.

Snow Depth

Station Depth Elevation

Earthquake Activity

City Distance Mag. Time & Date
Minimum magnitude displayed is 2.5.

Coastal Water Temperatures

Place Temperature

Stations

Nearby Weather Stations

Station Location Temp. Windchill Dew Point Humidity Wind Precip. Elev Updated Type
                   

Watches & Warnings

There are currently no watches in effect.